Sherburn, MN (56171)

8:53 PM CDT on September 23, 2014 (GMT -0500)
KC0NKL - Elm Creek Township | Change Station
CLOSE
Current Station
Personal Weather Station
Location: Sherburn, MN
Elevation: 1322 ft
Nearby Weather Stations

Elev 1322 ft 43.68 °N, 94.79 °W | Updated 7 seconds ago

Overcast
Overcast
59.5 °F
Feels Like 59.5 °F
N
4.9
Wind Variable Wind from SW
Gusts 7.4 mph

Today
High -- | Low -- °F
--% Chance of Precip.
Yesterday
High -- | Low -- °F
Precip. -- in
7:07 AM 7:14 PM
Waning Crescent, 0% visible
Pressure 30.19 in
Visibility 10.0 miles
Clouds Clear
Dew Point 54 °F
Humidity 83%
Rainfall 0.00 in
Snow Depth Not available.
UV 0 out of 12
Pollen 1.50 out of 12
Air Quality Not available.
Flu Activity Not available.
METAR KMJQ 230233Z AUTO 18005KT 10SM CLR 13/09 A3019 RMK AO2

More Conditions Fewer Conditions

Pressure 30.19 in
Visibility 10.0 miles
Clouds Clear
Dew Point 54 °F
Humidity 83%
Rainfall 0.00 in
Snow Depth Not available.
UV 0 out of 12
Pollen 1.50 out of 12
Air Quality Not available.
Flu Activity Not available.
METAR KMJQ 230233Z AUTO 18005KT 10SM CLR 13/09 A3019 RMK AO2

More Conditions Fewer Conditions

10-Day Weather Forecast

Almanac

Astronomy

Sep. 23, 2014 Rise Set
Actual Time 7:07 AM CDT 7:14 PM CDT
Civil Twilight 6:38 AM CDT 7:42 PM CDT
Nautical Twilight 6:05 AM CDT 8:16 PM CDT
Astronomical Twilight 5:30 AM CDT 8:50 PM CDT
Moon 6:32 AM CDT (9/23) 6:53 PM CDT (9/23)
Length of Visible Light 13h 04m
Length of Day
12h 07m
Tomorrow will be 2m 58s shorter.
Waning Crescent, 0% of the Moon is Illuminated
Today
Waning Crescent
Sep 24
New
Oct 1
First Quarter
Oct 8
Full
Oct 15
Last Quarter

Today's Extremes

State Highs State Lows

Community

WunderPhotos

Upload Photos

1,755,844 photos uploaded!

Nearby

Snow Depth

Station Depth Elevation
No new snow has been reported.

Earthquake Activity

City Distance Mag. Time & Date
No recent earthquake activity has been reported nearby.
Minimum magnitude displayed is 2.5.

Coastal Water Temperatures

Place Temperature
No Stations Reporting

Nearby Weather Stations